EGMD/LYX METAR and TAF weather

Enter ICAO airport designator
Station Type Date Time Source
EGMD METAR 2021/09/16 10:50 UTC NOAA

EGMD 161050Z 20008KT 170V230 9999 FEW025 20/15 Q1018


Station Type Date Time Source
EGMD Decoded METAR 2021/09/16 10:50 UTC NOAA

Lydd Airport , United Kingdom (EGMD) 50-57N 000-56E
Sep 16, 2021 - 06:50 AM EDT / 2021.09.16 1050 UTC
Wind: from the SSW (200 degrees) at 9 MPH (8 KT) (direction variable):0
Visibility: greater than 7 mile(s):0
Sky conditions: mostly clear
Temperature: 68 F (20 C)
Dew Point: 59 F (15 C)
Relative Humidity: 72%
Pressure (altimeter): 30.06 in. Hg (1018 hPa)
ob: EGMD 161050Z 20008KT 170V230 9999 FEW025 20/15 Q1018
cycle: 11

Station Type Date Time Source
EGMD TAF UTC NOAA

Error!

Example: see airport list